Time;durP1;ratioP1;P1;durP2;ratioP2;P2;SDS_P1;SDS_P2;PMS_P1;PMS_P2;Temp;Humidity;BMP_temperature;BMP_pressure;BME280_temperature;BME280_humidity;BME280_pressure;Samples;Min_cycle;Max_cycle;Signal;HPM_P1;HPM_P2
2022/07/18 00:00:23;;;;;;;6.97;3.92;;;14.30;99.90;14.40;98653.00;;;;5032545;27;86948;-62
2022/07/18 00:02:49;;;;;;;6.13;4.07;;;14.30;99.90;14.40;98651.00;;;;5040863;27;87908;-62
2022/07/18 00:05:16;;;;;;;5.25;3.80;;;14.30;99.90;14.40;98651.00;;;;5042835;27;87326;-62
2022/07/18 00:07:42;;;;;;;5.28;4.70;;;14.30;99.90;14.40;98652.00;;;;5043735;28;87194;-62
2022/07/18 00:10:08;;;;;;;8.75;4.63;;;14.30;99.90;14.40;98645.00;;;;5043603;27;87362;-62
2022/07/18 00:12:34;;;;;;;7.78;4.43;;;;;14.30;98638.00;;;;5042946;28;87767;-62
2022/07/18 00:15:03;;;;;;;6.85;4.78;;;14.20;99.90;14.30;98639.00;;;;5042729;27;88201;-62
2022/07/18 00:17:30;;;;;;;7.30;4.97;;;14.30;99.90;14.30;98647.00;;;;5042958;28;87097;-62
2022/07/18 00:19:56;;;;;;;6.18;4.22;;;14.30;99.90;14.30;98656.00;;;;5043257;27;86951;-63
2022/07/18 00:22:22;;;;;;;6.65;4.78;;;14.20;99.90;14.30;98650.00;;;;5042754;28;88551;-62
2022/07/18 00:24:48;;;;;;;6.75;3.97;;;14.30;99.90;14.30;98644.00;;;;5042281;28;89401;-62
2022/07/18 00:27:14;;;;;;;5.43;4.22;;;14.30;99.90;14.40;98648.00;;;;5042944;28;87931;-62
2022/07/18 00:29:41;;;;;;;6.50;4.18;;;14.30;99.90;14.40;98648.00;;;;5042942;27;87333;-62
2022/07/18 00:32:08;;;;;;;7.22;4.55;;;14.40;99.90;14.40;98646.00;;;;5042086;28;87674;-62
2022/07/18 00:34:35;;;;;;;9.82;4.20;;;14.40;99.90;14.40;98658.00;;;;5041052;27;87848;-62
2022/07/18 00:37:02;;;;;;;4.78;3.50;;;14.30;99.90;14.40;98654.00;;;;5042976;27;87122;-62
2022/07/18 00:39:29;;;;;;;4.50;2.60;;;14.40;99.90;14.40;98650.00;;;;5042570;28;86208;-62
2022/07/18 00:41:55;;;;;;;5.75;3.30;;;;;14.40;98653.00;;;;5042543;27;88157;-62
2022/07/18 00:44:25;;;;;;;5.43;2.90;;;14.40;99.90;14.50;98639.00;;;;5042399;28;87454;-62
2022/07/18 00:46:54;;;;;;;5.78;3.58;;;14.40;99.90;14.50;98650.00;;;;5041546;27;87923;-62
2022/07/18 00:49:21;;;;;;;3.90;2.70;;;14.40;99.90;14.40;98643.00;;;;5042335;28;87054;-62
2022/07/18 00:51:47;;;;;;;5.97;3.13;;;14.40;99.90;14.50;98658.00;;;;5040276;28;87728;-62
2022/07/18 00:54:13;;;;;;;3.85;2.85;;;14.40;99.90;14.50;98642.00;;;;5040135;28;88048;-62
2022/07/18 00:56:40;;;;;;;3.95;2.83;;;14.40;99.90;14.50;98638.00;;;;5041954;27;87060;-62
2022/07/18 00:59:07;;;;;;;5.60;3.30;;;14.50;99.90;14.50;98638.00;;;;5034600;28;87399;-62
2022/07/18 01:01:42;;;;;;;7.85;3.40;;;14.50;99.90;14.50;98638.00;;;;5038417;28;87704;-61
2022/07/18 01:04:29;;;;;;;4.18;3.13;;;14.50;99.90;14.60;98636.00;;;;5042585;27;87287;-62
2022/07/18 01:06:56;;;;;;;6.72;3.53;;;;;14.60;98633.00;;;;5041913;27;86953;-61
2022/07/18 01:09:22;;;;;;;7.55;3.10;;;14.50;99.90;14.60;98643.00;;;;5041786;28;87005;-62
2022/07/18 01:11:48;;;;;;;5.22;3.00;;;14.50;99.90;14.50;98631.00;;;;5040617;28;89619;-62
2022/07/18 01:14:16;;;;;;;5.85;3.20;;;14.50;99.90;14.60;98638.00;;;;5041988;28;89292;-62
2022/07/18 01:16:42;;;;;;;5.20;2.92;;;14.60;99.90;14.60;98643.00;;;;5042507;27;87215;-62
2022/07/18 01:19:10;;;;;;;4.65;2.97;;;14.60;99.90;14.60;98641.00;;;;5042258;28;86970;-62
2022/07/18 01:21:37;;;;;;;5.40;3.10;;;14.60;99.90;14.60;98638.00;;;;5041299;28;88626;-62
2022/07/18 01:24:04;;;;;;;3.47;2.50;;;14.60;99.90;14.60;98635.00;;;;5042268;27;87310;-62
2022/07/18 01:26:30;;;;;;;6.32;3.08;;;14.60;99.90;14.60;98626.00;;;;5041136;28;87010;-62
2022/07/18 01:28:56;;;;;;;6.20;3.17;;;14.60;99.90;14.70;98625.00;;;;5042631;27;86543;-62
2022/07/18 01:31:22;;;;;;;5.35;3.10;;;14.60;99.90;14.60;98622.00;;;;5040894;28;87693;-61
2022/07/18 01:33:49;;;;;;;5.18;3.17;;;14.60;99.90;14.60;98634.00;;;;5041585;27;88060;-61
2022/07/18 01:36:15;;;;;;;5.80;2.75;;;14.60;99.90;14.70;98636.00;;;;5041482;27;88390;-62
2022/07/18 01:38:41;;;;;;;5.53;3.20;;;14.60;99.90;14.70;98630.00;;;;5042302;27;86954;-62
2022/07/18 01:41:07;;;;;;;5.75;2.80;;;14.60;99.90;14.70;98640.00;;;;5041660;27;87724;-61
2022/07/18 01:43:34;;;;;;;5.10;2.65;;;14.70;99.90;14.70;98632.00;;;;5040839;28;87337;-62
2022/07/18 01:46:01;;;;;;;3.20;2.55;;;14.70;99.90;14.80;98639.00;;;;5041286;27;87052;-61
2022/07/18 01:48:27;;;;;;;3.97;2.20;;;14.70;99.90;14.80;98635.00;;;;5041340;27;86941;-61
2022/07/18 01:50:53;;;;;;;3.72;2.80;;;14.70;99.90;14.80;98635.00;;;;5040669;28;88494;-61
2022/07/18 01:53:21;;;;;;;5.38;3.05;;;14.70;99.90;14.80;98629.00;;;;5041770;28;88537;-61
2022/07/18 01:55:47;;;;;;;8.30;2.80;;;14.70;99.90;14.80;98635.00;;;;5041327;27;87127;-61
2022/07/18 01:58:13;;;;;;;5.30;3.00;;;14.70;99.90;14.80;98632.00;;;;5032597;27;87419;-61
2022/07/18 02:00:40;;;;;;;5.72;3.30;;;14.70;99.90;14.80;98633.00;;;;5041251;27;90106;-61
2022/07/18 02:03:06;;;;;;;5.00;3.20;;;14.70;99.90;14.80;98638.00;;;;5041389;27;88603;-61
2022/07/18 02:05:32;;;;;;;6.45;3.20;;;14.70;99.90;14.80;98624.00;;;;5041617;28;86948;-61
2022/07/18 02:07:58;;;;;;;7.40;3.30;;;14.70;99.90;14.80;98635.00;;;;5041891;27;87373;-61
2022/07/18 02:10:24;;;;;;;7.28;3.55;;;14.70;99.90;14.80;98630.00;;;;5030872;28;88009;-61
2022/07/18 02:12:51;;;;;;;6.75;3.15;;;14.80;99.90;14.80;98631.00;;;;5038844;28;87262;-61
2022/07/18 02:15:37;;;;;;;4.90;3.15;;;14.80;99.90;14.80;98628.00;;;;5041358;28;87282;-61
2022/07/18 02:18:04;;;;;;;5.72;3.00;;;14.80;99.90;14.90;98626.00;;;;5040220;28;87648;-61
2022/07/18 02:20:30;;;;;;;4.45;2.40;;;14.80;99.90;14.90;98625.00;;;;5041239;27;87561;-61
2022/07/18 02:22:56;;;;;;;4.65;2.97;;;14.80;99.90;14.90;98618.00;;;;5038037;28;88911;-61
2022/07/18 02:25:22;;;;;;;4.35;2.67;;;14.90;99.90;14.90;98622.00;;;;5040747;28;87737;-61
2022/07/18 02:27:48;;;;;;;6.78;2.75;;;14.90;99.90;15.00;98627.00;;;;5041103;28;87927;-61
2022/07/18 02:30:14;;;;;;;4.63;2.33;;;14.90;99.90;15.00;98628.00;;;;5040515;28;87449;-61
2022/07/18 02:32:41;;;;;;;7.10;2.60;;;14.90;99.90;15.00;98622.00;;;;5038573;28;87547;-61
2022/07/18 02:35:08;;;;;;;6.50;2.20;;;14.90;99.90;15.00;98621.00;;;;5038294;28;86958;-61
2022/07/18 02:37:37;;;;;;;5.07;2.53;;;15.00;99.90;15.00;98624.00;;;;5040935;27;87169;-61
2022/07/18 02:40:07;;;;;;;5.78;2.67;;;15.00;99.90;15.10;98617.00;;;;5040671;27;87527;-61
2022/07/18 02:42:34;;;;;;;4.57;2.83;;;15.00;99.90;15.10;98614.00;;;;5041196;27;87091;-61
2022/07/18 02:45:00;;;;;;;4.40;2.15;;;15.00;99.90;15.10;98612.00;;;;5041210;28;86925;-61
2022/07/18 02:47:26;;;;;;;3.47;2.30;;;15.10;99.90;15.20;98623.00;;;;5039886;27;86964;-61
2022/07/18 02:49:52;;;;;;;5.75;2.40;;;15.00;99.90;15.10;98618.00;;;;5038700;27;88419;-61
2022/07/18 02:52:19;;;;;;;4.13;2.30;;;15.00;99.90;15.10;98616.00;;;;5039807;27;88196;-61
2022/07/18 02:54:45;;;;;;;7.13;2.47;;;15.10;99.90;15.20;98620.00;;;;5040196;28;87044;-62
2022/07/18 02:57:11;;;;;;;4.85;2.10;;;15.10;99.90;15.20;98625.00;;;;5038978;28;87172;-62
2022/07/18 02:59:37;;;;;;;5.68;1.98;;;15.10;99.90;15.20;98628.00;;;;5039778;27;86971;-61
2022/07/18 03:02:03;;;;;;;4.35;1.80;;;15.20;99.90;15.30;98617.00;;;;5040145;27;87846;-61
2022/07/18 03:04:30;;;;;;;6.20;2.30;;;15.20;99.90;15.30;98620.00;;;;5040955;27;87077;-62
2022/07/18 03:06:56;;;;;;;4.22;1.98;;;15.20;99.90;15.30;98615.00;;;;5040758;27;86374;-62
2022/07/18 03:09:22;;;;;;;5.25;2.13;;;15.20;99.90;15.40;98612.00;;;;5040554;27;87258;-61
2022/07/18 03:11:49;;;;;;;3.95;1.90;;;15.20;99.90;15.40;98621.00;;;;5040863;27;88813;-61
2022/07/18 03:14:15;;;;;;;3.65;2.10;;;15.30;99.90;15.40;98610.00;;;;5040296;27;88736;-63
2022/07/18 03:16:41;;;;;;;4.47;1.92;;;15.30;99.90;15.40;98631.00;;;;5040469;27;86998;-61
2022/07/18 03:19:07;;;;;;;4.85;1.60;;;15.40;99.90;15.50;98628.00;;;;5040336;28;88663;-61
2022/07/18 03:21:33;;;;;;;3.80;2.10;;;15.40;99.90;15.50;98623.00;;;;5040519;27;87024;-62
2022/07/18 03:23:59;;;;;;;3.58;1.98;;;15.50;99.90;15.60;98619.00;;;;5041710;27;87085;-62
2022/07/18 03:26:26;;;;;;;3.45;1.98;;;15.50;99.90;15.70;98613.00;;;;5050804;27;87073;-62
2022/07/18 03:28:52;;;;;;;3.63;2.10;;;15.60;99.90;15.70;98615.00;;;;5044387;27;87505;-62
2022/07/18 03:31:18;;;;;;;2.40;1.65;;;16.00;99.90;15.70;98619.00;;;;5042996;28;86280;-61
2022/07/18 03:33:44;;;;;;;5.00;1.90;;;15.60;99.90;15.70;98617.00;;;;5058764;27;87100;-62
2022/07/18 03:36:10;;;;;;;3.45;1.70;;;15.60;99.90;15.70;98625.00;;;;5043717;27;87008;-62
2022/07/18 03:38:37;;;;;;;6.03;2.13;;;15.70;99.90;15.80;98622.00;;;;5043223;27;88592;-61
2022/07/18 03:41:04;;;;;;;5.05;1.90;;;15.80;99.90;15.90;98615.00;;;;5043734;28;88019;-62
2022/07/18 03:43:30;;;;;;;3.97;2.17;;;15.80;99.90;15.90;98620.00;;;;5043630;27;87004;-62
2022/07/18 03:45:57;;;;;;;3.55;2.20;;;;;15.90;98618.00;;;;5042837;27;87058;-63
2022/07/18 03:48:24;;;;;;;5.32;2.05;;;15.90;99.90;16.00;98622.00;;;;5039501;28;86829;-62
2022/07/18 03:50:50;;;;;;;4.22;1.80;;;15.90;99.90;16.00;98620.00;;;;5042497;28;87478;-63
2022/07/18 03:53:16;;;;;;;4.03;2.00;;;15.90;99.90;16.10;98617.00;;;;5043230;27;86908;-63
2022/07/18 03:55:42;;;;;;;6.00;2.30;;;15.90;99.90;16.10;98620.00;;;;5043924;28;86181;-62
2022/07/18 03:58:08;;;;;;;3.72;2.00;;;15.90;99.90;16.10;98626.00;;;;5039323;28;87050;-63
2022/07/18 04:00:34;;;;;;;4.35;1.88;;;16.00;99.90;16.20;98620.00;;;;5042292;28;87104;-63
2022/07/18 04:03:01;;;;;;;5.82;2.30;;;16.00;99.90;16.20;98622.00;;;;5042466;28;87883;-63
2022/07/18 04:05:27;;;;;;;5.20;1.90;;;16.10;99.90;16.20;98624.00;;;;5043506;28;87277;-63
2022/07/18 04:07:53;;;;;;;6.60;2.30;;;16.10;99.90;16.20;98631.00;;;;5043150;28;87629;-63
2022/07/18 04:10:20;;;;;;;3.08;1.85;;;16.10;99.90;16.30;98629.00;;;;5041620;28;88433;-63
2022/07/18 04:12:52;;;;;;;2.65;1.83;;;16.20;99.90;16.40;98627.00;;;;5043156;28;86925;-63
2022/07/18 04:15:21;;;;;;;3.65;1.88;;;16.30;99.90;16.50;98629.00;;;;5036519;28;86815;-63
2022/07/18 04:17:48;;;;;;;5.80;1.90;;;16.50;99.90;16.70;98626.00;;;;5042232;27;88261;-63
2022/07/18 04:20:17;;;;;;;3.67;1.63;;;16.50;99.90;16.80;98628.00;;;;5042801;27;87376;-63
2022/07/18 04:22:55;;;;;;;3.75;2.17;;;16.60;99.90;16.80;98625.00;;;;5042712;27;87086;-62
2022/07/18 04:25:25;;;;;;;4.55;2.00;;;16.60;99.90;16.90;98631.00;;;;5043063;27;87004;-63
2022/07/18 04:27:53;;;;;;;5.07;2.15;;;16.60;99.90;16.80;98633.00;;;;5042336;27;88473;-63
2022/07/18 04:30:23;;;;;;;4.13;1.90;;;16.50;99.90;16.70;98637.00;;;;5041856;27;89294;-63
2022/07/18 04:32:51;;;;;;;4.95;2.30;;;16.40;99.90;16.60;98632.00;;;;5042048;27;87940;-62
2022/07/18 04:35:17;;;;;;;3.30;2.05;;;16.30;99.90;16.50;98638.00;;;;5039086;28;87136;-63
2022/07/18 04:37:43;;;;;;;4.22;2.20;;;16.30;99.90;16.30;98621.00;;;;5042293;28;88676;-62
2022/07/18 04:40:12;;;;;;;3.00;1.92;;;16.20;99.90;16.20;98627.00;;;;5042766;28;88472;-63
2022/07/18 04:42:38;;;;;;;5.82;2.10;;;16.10;99.90;16.00;98616.00;;;;5042340;28;86921;-63
2022/07/18 04:45:07;;;;;;;6.72;2.15;;;15.60;99.90;15.70;98615.00;;;;5042753;27;86325;-63
2022/07/18 04:47:33;;;;;;;3.92;1.90;;;15.60;99.90;15.50;98597.00;;;;5042010;27;88897;-63
2022/07/18 04:49:59;;;;;;;3.90;2.08;;;15.20;99.90;15.30;98603.00;;;;5033227;28;87160;-63
2022/07/18 04:52:26;;;;;;;5.25;1.98;;;15.20;99.90;15.30;98606.00;;;;5040910;27;87840;-63
2022/07/18 04:54:52;;;;;;;3.47;1.85;;;15.10;99.90;15.20;98603.00;;;;5042356;28;87024;-63
2022/07/18 04:57:18;;;;;;;6.43;2.58;;;15.10;99.90;15.20;98594.00;;;;5041983;28;88771;-63
2022/07/18 04:59:46;;;;;;;4.20;2.42;;;15.10;99.90;15.20;98601.00;;;;5029776;27;87264;-63
2022/07/18 05:02:12;;;;;;;4.53;2.65;;;15.20;99.90;15.30;98612.00;;;;5040872;28;87371;-62
2022/07/18 05:04:39;;;;;;;3.72;2.42;;;15.30;99.90;15.40;98609.00;;;;5042689;27;86936;-63
2022/07/18 05:07:06;;;;;;;5.72;2.80;;;15.30;99.90;15.50;98609.00;;;;5041813;28;87604;-62
2022/07/18 05:09:33;;;;;;;4.35;2.35;;;15.60;99.90;15.70;98610.00;;;;5042566;28;87168;-62
2022/07/18 05:11:59;;;;;;;5.75;2.47;;;16.00;99.90;16.00;98618.00;;;;5042008;28;86928;-62
2022/07/18 05:14:25;;;;;;;4.95;2.38;;;16.00;99.90;16.60;98613.00;;;;5041238;28;86977;-63
2022/07/18 05:16:52;;;;;;;8.25;2.28;;;17.30;99.90;17.50;98629.00;;;;5056711;27;89791;-62
2022/07/18 05:19:18;;;;;;;7.22;2.30;;;17.70;99.90;18.00;98633.00;;;;5041824;27;88036;-63
2022/07/18 05:21:44;;;;;;;6.20;2.55;;;17.70;99.90;18.10;98632.00;;;;5042141;28;86993;-63
2022/07/18 05:24:11;;;;;;;5.45;2.58;;;17.70;99.90;18.00;98626.00;;;;5041637;27;87454;-63
2022/07/18 05:26:37;;;;;;;5.20;2.20;;;17.70;99.90;17.80;98632.00;;;;5041213;28;89006;-63
2022/07/18 05:29:04;;;;;;;5.32;2.58;;;17.70;99.90;17.70;98640.00;;;;5041081;28;89990;-63
2022/07/18 05:31:30;;;;;;;5.53;2.65;;;17.30;99.90;17.50;98639.00;;;;5040524;27;87566;-63
2022/07/18 05:33:57;;;;;;;6.47;2.72;;;17.20;99.90;17.40;98638.00;;;;5041343;28;86606;-63
2022/07/18 05:36:23;;;;;;;5.32;2.58;;;17.00;99.90;17.20;98629.00;;;;5040902;28;88679;-63
2022/07/18 05:38:49;;;;;;;6.78;2.58;;;16.90;99.90;17.10;98624.00;;;;5041587;27;87560;-62
2022/07/18 05:41:15;;;;;;;2.60;1.60;;;17.10;99.90;17.20;98616.00;;;;5041219;27;87834;-63
2022/07/18 05:43:42;;;;;;;3.67;1.98;;;;;17.30;98613.00;;;;5041181;28;87103;-62
2022/07/18 05:46:09;;;;;;;8.35;2.10;;;17.30;99.90;17.50;98614.00;;;;5038904;27;87694;-63
2022/07/18 05:48:35;;;;;;;3.00;1.80;;;17.30;99.90;17.70;98615.00;;;;5041182;27;88450;-63
2022/07/18 05:51:01;;;;;;;1.85;1.15;;;17.80;99.90;18.10;98606.00;;;;5041080;27;86965;-62
2022/07/18 05:53:27;;;;;;;7.00;1.70;;;17.90;99.90;18.10;98606.00;;;;5040322;27;87076;-62
2022/07/18 05:55:54;;;;;;;3.30;1.80;;;18.10;99.90;18.30;98609.00;;;;5041342;28;87564;-63
2022/07/18 05:58:20;;;;;;;2.88;1.70;;;18.50;99.90;18.80;98587.00;;;;5041477;28;87266;-63
2022/07/18 06:00:46;;;;;;;2.17;1.48;;;18.90;99.90;19.20;98585.00;;;;5041483;28;86886;-63
2022/07/18 06:03:12;;;;;;;4.72;1.80;;;19.20;99.90;19.60;98580.00;;;;5041741;28;86981;-62
2022/07/18 06:05:39;;;;;;;3.35;2.08;;;20.00;99.90;20.60;98588.00;;;;5040307;28;88625;-62
2022/07/18 06:08:06;;;;;;;3.13;2.00;;;20.60;99.90;21.10;98597.00;;;;5032324;28;90693;-62
2022/07/18 06:10:32;;;;;;;4.53;2.13;;;20.50;99.90;21.20;98585.00;;;;5041084;28;86887;-62
2022/07/18 06:12:58;;;;;;;3.67;2.15;;;20.60;99.90;21.20;98583.00;;;;5040842;27;87312;-62
2022/07/18 06:15:24;;;;;;;6.18;2.53;;;20.60;99.90;20.90;98579.00;;;;5040910;28;89529;-62
2022/07/18 06:17:52;;;;;;;4.82;2.25;;;20.50;99.90;20.60;98594.00;;;;5039883;28;87017;-62
2022/07/18 06:20:19;;;;;;;4.85;2.08;;;19.90;99.90;20.30;98577.00;;;;5036293;27;89129;-62
2022/07/18 06:22:45;;;;;;;4.13;2.47;;;19.90;99.90;20.20;98593.00;;;;5032794;27;86468;-62
2022/07/18 06:25:12;;;;;;;3.28;2.33;;;19.70;99.90;20.10;98587.00;;;;5040338;27;88426;-62
2022/07/18 06:27:39;;;;;;;5.07;2.40;;;19.80;99.90;20.20;98592.00;;;;5035594;28;88482;-62
2022/07/18 06:30:07;;;;;;;4.75;2.25;;;19.80;99.90;20.50;98587.00;;;;5039315;27;88138;-62
2022/07/18 06:32:33;;;;;;;3.22;1.90;;;20.30;99.90;20.70;98583.00;;;;5038302;28;87497;-62
2022/07/18 06:35:00;;;;;;;5.90;2.50;;;20.50;99.90;20.90;98580.00;;;;5014042;28;90554;-62
2022/07/18 06:37:26;;;;;;;4.45;2.35;;;20.50;99.90;21.00;98579.00;;;;5040351;28;89094;-62
2022/07/18 06:39:53;;;;;;;4.00;2.40;;;20.50;99.90;20.90;98568.00;;;;5027608;28;87534;-62
2022/07/18 06:42:19;;;;;;;4.88;1.90;;;20.50;99.90;20.50;98577.00;;;;4989636;28;87108;-62
2022/07/18 06:44:46;;;;;;;5.38;2.17;;;20.10;99.90;20.40;98566.00;;;;5031776;28;87585;-62
2022/07/18 06:47:13;;;;;;;4.00;2.25;;;20.10;99.90;20.30;98564.00;;;;5020560;28;90685;-62
2022/07/18 06:49:39;;;;;;;5.60;2.03;;;20.00;99.90;20.40;98571.00;;;;5023491;28;86954;-62
2022/07/18 06:52:06;;;;;;;6.53;2.05;;;20.10;99.90;20.40;98569.00;;;;5039159;28;87123;-62
2022/07/18 06:54:35;;;;;;;5.40;2.38;;;20.10;99.90;20.80;98566.00;;;;5022305;28;89836;-62
2022/07/18 06:57:06;;;;;;;4.18;2.72;;;20.40;99.90;20.70;98569.00;;;;5022255;28;89747;-63
2022/07/18 06:59:33;;;;;;;2.70;2.20;;;20.50;99.90;20.90;98567.00;;;;5051666;27;87493;-63
2022/07/18 07:02:00;;;;;;;4.97;2.60;;;20.50;99.90;20.80;98568.00;;;;5026488;28;86968;-63
2022/07/18 07:04:26;;;;;;;5.72;2.22;;;20.40;99.90;20.80;98576.00;;;;5041432;27;87987;-63
2022/07/18 07:06:53;;;;;;;4.38;2.28;;;20.20;99.90;20.60;98573.00;;;;5048523;27;88580;-63
2022/07/18 07:09:20;;;;;;;5.32;2.70;;;20.20;99.90;20.30;98565.00;;;;5048177;27;87000;-62
2022/07/18 07:11:49;;;;;;;3.45;2.22;;;20.00;99.90;20.50;98570.00;;;;5043111;28;86586;-62
2022/07/18 07:14:16;;;;;;;5.45;2.63;;;20.50;99.90;20.80;98563.00;;;;5023493;28;90317;-63
2022/07/18 07:16:42;;;;;;;6.78;2.28;;;20.70;99.90;21.10;98568.00;;;;5031648;28;90275;-63
2022/07/18 07:19:09;;;;;;;7.07;2.50;;;20.80;99.90;21.20;98566.00;;;;5021219;28;88138;-62
2022/07/18 07:21:36;;;;;;;5.25;2.83;;;21.00;99.90;21.40;98568.00;;;;5043782;27;87291;-62
2022/07/18 07:24:02;;;;;;;5.97;2.40;;;21.10;99.90;21.40;98573.00;;;;5046865;27;87758;-61
2022/07/18 07:26:29;;;;;;;5.97;2.65;;;21.00;99.90;21.50;98578.00;;;;5025534;28;89168;-61
2022/07/18 07:28:55;;;;;;;8.13;2.63;;;21.10;99.90;21.60;98571.00;;;;5043036;28;87525;-63
2022/07/18 07:31:22;;;;;;;9.27;2.63;;;21.20;99.90;21.60;98565.00;;;;5022937;27;87367;-59
2022/07/18 07:33:48;;;;;;;6.93;2.50;;;21.40;99.90;21.80;98574.00;;;;5007474;28;89155;-59
2022/07/18 07:36:15;;;;;;;9.40;3.10;;;21.40;99.90;21.90;98577.00;;;;5042846;28;87952;-60
2022/07/18 07:38:42;;;;;;;7.90;2.72;;;21.20;99.90;21.60;98581.00;;;;5003247;28;87172;-60
2022/07/18 07:41:13;;;;;;;8.60;2.80;;;21.20;99.90;21.40;98581.00;;;;5042248;27;87082;-60
2022/07/18 07:43:40;;;;;;;5.03;2.63;;;21.00;99.90;21.40;98581.00;;;;5034083;27;88678;-60
2022/07/18 07:46:11;;;;;;;5.85;2.50;;;21.10;99.90;21.50;98584.00;;;;5041453;27;88791;-60
2022/07/18 07:48:43;;;;;;;7.32;2.75;;;21.30;99.90;21.60;98572.00;;;;5025361;27;87529;-59
2022/07/18 07:51:12;;;;;;;3.08;2.15;;;21.30;99.90;21.70;98564.00;;;;5009818;28;87302;-59
2022/07/18 07:53:41;;;;;;;5.60;2.50;;;21.50;99.90;21.90;98570.00;;;;5011869;28;90677;-59
2022/07/18 07:56:07;;;;;;;6.63;2.75;;;21.50;99.90;21.90;98558.00;;;;5017244;28;90524;-60
2022/07/18 07:58:33;;;;;;;9.70;3.08;;;21.70;99.90;22.10;98558.00;;;;5043002;27;86906;-59
2022/07/18 08:00:59;;;;;;;6.93;3.03;;;21.70;99.90;22.10;98572.00;;;;5044126;28;86686;-60
2022/07/18 08:03:26;;;;;;;3.70;2.58;;;;;22.20;98558.00;;;;5042877;27;88702;-60
2022/07/18 08:05:52;;;;;;;10.00;3.17;;;21.80;99.90;22.20;98549.00;;;;5040945;28;87348;-60
2022/07/18 08:08:19;;;;;;;5.57;2.63;;;21.80;99.90;22.20;98549.00;;;;5042960;27;87882;-60
2022/07/18 08:10:47;;;;;;;6.13;2.63;;;21.90;99.90;22.30;98531.00;;;;5042610;28;87073;-60
2022/07/18 08:13:14;;;;;;;5.75;2.75;;;22.00;99.90;22.30;98528.00;;;;5041718;27;87031;-60
2022/07/18 08:15:41;;;;;;;6.80;2.30;;;22.20;99.90;22.60;98528.00;;;;5041644;28;88485;-60
2022/07/18 08:18:07;;;;;;;8.35;3.25;;;22.20;99.90;22.40;98526.00;;;;5033118;28;87137;-60
2022/07/18 08:20:34;;;;;;;5.40;2.67;;;22.10;99.90;22.40;98530.00;;;;5042545;28;87449;-61
2022/07/18 08:23:07;;;;;;;7.22;2.88;;;22.30;99.90;22.70;98526.00;;;;5037748;28;87490;-60
2022/07/18 08:25:37;;;;;;;4.72;2.50;;;22.40;99.90;22.80;98539.00;;;;5042466;28;87207;-60
2022/07/18 08:28:04;;;;;;;8.02;2.53;;;22.40;99.90;22.80;98525.00;;;;5042274;28;87092;-60
2022/07/18 08:30:31;;;;;;;12.00;3.40;;;22.10;99.90;22.50;98526.00;;;;5042341;27;87449;-60
2022/07/18 08:33:00;;;;;;;5.70;2.83;;;21.90;99.90;22.30;98518.00;;;;5040492;28;88657;-61
2022/07/18 08:35:28;;;;;;;7.63;3.03;;;21.10;99.90;21.60;98528.00;;;;5041037;27;88175;-60
2022/07/18 08:37:54;;;;;;;7.03;3.05;;;21.30;99.90;21.70;98527.00;;;;5042691;27;87004;-60
2022/07/18 08:40:21;;;;;;;8.50;3.17;;;21.30;99.90;21.80;98534.00;;;;5043002;28;87525;-60
2022/07/18 08:42:51;;;;;;;5.80;2.65;;;21.40;99.90;21.90;98519.00;;;;5041722;27;87967;-60
2022/07/18 08:45:23;;;;;;;10.77;2.80;;;21.30;99.90;21.80;98524.00;;;;5042055;28;88563;-60
2022/07/18 08:47:50;;;;;;;9.43;3.00;;;21.20;99.90;21.70;98521.00;;;;5042347;28;87078;-61
2022/07/18 08:50:18;;;;;;;6.90;3.47;;;21.30;99.90;21.70;98523.00;;;;5040084;28;86245;-60
2022/07/18 08:52:45;;;;;;;12.13;3.20;;;21.20;99.90;21.60;98512.00;;;;5041690;27;87588;-60
2022/07/18 08:55:12;;;;;;;11.15;2.88;;;21.00;99.90;21.40;98520.00;;;;5041829;27;88451;-60
2022/07/18 08:57:39;;;;;;;7.38;3.03;;;20.90;99.90;21.30;98511.00;;;;5041518;27;88334;-60
2022/07/18 09:00:09;;;;;;;8.40;2.70;;;20.80;99.90;21.20;98513.00;;;;5042441;27;86943;-60
2022/07/18 09:02:35;;;;;;;7.22;2.95;;;20.60;99.90;21.10;98519.00;;;;5042386;28;87719;-61
2022/07/18 09:05:05;;;;;;;4.57;2.55;;;20.70;99.90;21.20;98522.00;;;;5039272;28;88376;-60
2022/07/18 09:07:36;;;;;;;4.25;2.15;;;20.90;99.90;21.40;98525.00;;;;5040671;28;87043;-60
2022/07/18 09:10:05;;;;;;;;;;;20.90;99.90;21.00;98514.00;;;;5042672;27;86945;-60
2022/07/18 09:12:32;;;;;;;4.00;2.42;;;20.20;99.90;20.60;98521.00;;;;5042055;27;87507;-60
2022/07/18 09:15:08;;;;;;;5.30;2.47;;;20.10;99.90;20.60;98520.00;;;;5040741;28;89039;-60
2022/07/18 09:17:35;;;;;;;8.10;1.80;;;20.10;99.90;20.50;98511.00;;;;5034539;28;87804;-61
2022/07/18 09:20:10;;;;;;;6.07;2.42;;;20.10;99.90;20.50;98506.00;;;;5040922;27;87387;-60
2022/07/18 09:22:39;;;;;;;6.05;2.22;;;20.20;99.90;20.60;98522.00;;;;5040689;28;89630;-61
2022/07/18 09:25:10;;;;;;;7.53;2.40;;;20.10;99.90;20.50;98506.00;;;;5041386;27;88238;-61
2022/07/18 09:27:50;;;;;;;7.53;2.88;;;20.00;99.90;20.40;98521.00;;;;5040974;27;86934;-61
2022/07/18 09:30:25;;;;;;;4.07;2.03;;;20.60;99.90;20.60;98507.00;;;;5032387;28;88108;-60
2022/07/18 09:33:12;;;;;;;5.00;2.00;;;20.50;99.90;21.10;98508.00;;;;5040290;27;87667;-60
2022/07/18 09:35:47;;;;;;;4.95;2.38;;;20.90;99.90;21.40;98510.00;;;;5040001;28;86900;-60
2022/07/18 09:38:23;;;;;;;4.65;2.13;;;21.10;99.90;21.60;98488.00;;;;5042125;27;86901;-60
2022/07/18 09:40:54;;;;;;;3.72;1.70;;;21.30;99.90;21.80;98498.00;;;;5042322;28;86332;-61
2022/07/18 09:43:23;;;;;;;2.75;1.67;;;21.20;99.90;21.80;98495.00;;;;5041264;27;88626;-61
2022/07/18 09:45:55;;;;;;;3.88;1.60;;;21.40;99.90;21.90;98495.00;;;;5039663;28;88702;-60
2022/07/18 09:48:27;;;;;;;3.83;1.77;;;21.60;99.90;22.10;98482.00;;;;5036767;28;87851;-61
2022/07/18 09:51:05;;;;;;;4.50;1.50;;;21.80;99.90;22.30;98485.00;;;;5040495;28;86983;-60
2022/07/18 09:53:38;;;;;;;2.50;1.75;;;21.70;99.90;22.20;98477.00;;;;5041296;28;88832;-61
2022/07/18 09:56:13;;;;;;;2.38;1.55;;;21.70;99.90;22.20;98481.00;;;;5033694;28;87365;-61
2022/07/18 09:58:54;;;;;;;3.45;1.65;;;21.80;99.90;22.30;98478.00;;;;5040991;27;87000;-61
2022/07/18 10:01:21;;;;;;;4.72;1.70;;;21.90;99.90;22.40;98478.00;;;;5041572;28;86914;-61
2022/07/18 10:03:50;;;;;;;5.00;1.80;;;21.90;99.90;22.50;98475.00;;;;5040137;27;87703;-60
2022/07/18 10:06:18;;;;;;;4.30;1.30;;;22.00;99.90;22.50;98480.00;;;;5040251;27;88568;-61
2022/07/18 10:08:45;;;;;;;3.65;1.30;;;22.00;99.90;22.50;98477.00;;;;5041243;28;87138;-60
2022/07/18 10:11:11;;;;;;;2.30;1.23;;;22.10;99.90;22.50;98471.00;;;;5040864;27;87561;-61
2022/07/18 10:13:38;;;;;;;5.32;1.80;;;22.30;99.90;22.90;98474.00;;;;5039671;28;88515;-60
2022/07/18 10:16:06;;;;;;;3.72;1.25;;;22.60;99.90;23.10;98470.00;;;;5040548;28;89625;-60
2022/07/18 10:18:36;;;;;;;5.05;1.40;;;22.80;99.90;23.40;98478.00;;;;5039984;27;87110;-60
2022/07/18 10:21:02;;;;;;;3.75;1.60;;;22.50;99.90;23.00;98470.00;;;;5038005;27;87529;-59
2022/07/18 10:23:39;;;;;;;4.60;1.35;;;22.70;99.90;23.30;98471.00;;;;5040449;27;87486;-59
2022/07/18 10:26:12;;;;;;;4.47;1.38;;;23.10;99.90;23.80;98471.00;;;;5039259;28;87457;-59
2022/07/18 10:29:00;;;;;;;4.80;1.45;;;23.10;99.90;23.90;98474.00;;;;5040935;28;86991;-62
2022/07/18 10:31:42;;;;;;;6.47;1.88;;;23.40;99.90;24.00;98464.00;;;;5040465;27;86344;-59
2022/07/18 10:34:11;;;;;;;3.88;1.70;;;23.00;99.90;23.60;98470.00;;;;5037271;28;88179;-60
2022/07/18 10:36:50;;;;;;;2.28;1.42;;;22.90;99.90;23.50;98462.00;;;;5043283;27;88313;-60
2022/07/18 10:39:24;;;;;;;5.45;2.13;;;23.00;99.90;23.60;98455.00;;;;5044606;28;87861;-60
2022/07/18 10:41:57;;;;;;;6.03;1.98;;;23.30;99.90;23.90;98450.00;;;;5045013;28;87819;-59
2022/07/18 10:44:27;;;;;;;3.20;1.65;;;22.50;99.90;23.00;98450.00;;;;5040989;28;86925;-60
2022/07/18 10:47:24;;;;;;;9.77;2.05;;;21.90;99.90;22.30;98442.00;;;;5043205;28;88197;-60
2022/07/18 10:49:51;;;;;;;5.95;1.90;;;21.80;99.90;22.20;98445.00;;;;5043943;27;86942;-60
2022/07/18 10:52:26;;;;;;;7.70;2.17;;;21.70;99.90;22.20;98449.00;;;;5043845;28;87085;-60
2022/07/18 10:55:16;;;;;;;3.75;1.85;;;21.80;99.90;22.20;98445.00;;;;5042761;28;87625;-63
2022/07/18 10:58:06;;;;;;;6.47;1.65;;;21.90;99.90;22.50;98443.00;;;;5025387;28;89671;-63
2022/07/18 11:00:38;;;;;;;5.13;1.45;;;22.50;99.90;22.90;98426.00;;;;5041402;28;87674;-63